sensor_id;sensor_type;location;lat;lon;timestamp;P1;durP1;ratioP1;P2;durP2;ratioP2
8913;SDS011;4492;48.736;9.092;2022-10-18T00:00:34;7.00;;;3.07;;
8913;SDS011;4492;48.736;9.092;2022-10-18T00:03:00;3.27;;;3.00;;
8913;SDS011;4492;48.736;9.092;2022-10-18T00:05:25;3.87;;;3.33;;
8913;SDS011;4492;48.736;9.092;2022-10-18T00:07:51;4.97;;;3.20;;
8913;SDS011;4492;48.736;9.092;2022-10-18T00:10:16;7.60;;;3.40;;
8913;SDS011;4492;48.736;9.092;2022-10-18T00:12:42;4.30;;;3.30;;
8913;SDS011;4492;48.736;9.092;2022-10-18T00:15:07;7.67;;;3.40;;
8913;SDS011;4492;48.736;9.092;2022-10-18T00:17:35;4.77;;;3.20;;
8913;SDS011;4492;48.736;9.092;2022-10-18T00:20:02;3.63;;;2.80;;
8913;SDS011;4492;48.736;9.092;2022-10-18T00:22:29;4.13;;;3.10;;
8913;SDS011;4492;48.736;9.092;2022-10-18T00:24:55;3.43;;;3.07;;
8913;SDS011;4492;48.736;9.092;2022-10-18T00:27:20;3.60;;;3.23;;
8913;SDS011;4492;48.736;9.092;2022-10-18T00:29:46;5.87;;;3.43;;
8913;SDS011;4492;48.736;9.092;2022-10-18T00:32:11;4.83;;;3.53;;
8913;SDS011;4492;48.736;9.092;2022-10-18T00:34:37;5.80;;;3.40;;
8913;SDS011;4492;48.736;9.092;2022-10-18T00:37:04;8.20;;;4.13;;
8913;SDS011;4492;48.736;9.092;2022-10-18T00:39:30;8.27;;;3.97;;
8913;SDS011;4492;48.736;9.092;2022-10-18T00:41:56;5.73;;;4.03;;
8913;SDS011;4492;48.736;9.092;2022-10-18T00:46:50;9.83;;;4.20;;
8913;SDS011;4492;48.736;9.092;2022-10-18T00:49:20;9.23;;;4.20;;
8913;SDS011;4492;48.736;9.092;2022-10-18T00:51:52;9.03;;;4.40;;
8913;SDS011;4492;48.736;9.092;2022-10-18T00:54:21;5.43;;;4.03;;
8913;SDS011;4492;48.736;9.092;2022-10-18T00:56:47;7.30;;;3.80;;
8913;SDS011;4492;48.736;9.092;2022-10-18T00:59:14;3.50;;;3.20;;
8913;SDS011;4492;48.736;9.092;2022-10-18T01:01:41;9.53;;;3.77;;
8913;SDS011;4492;48.736;9.092;2022-10-18T01:04:06;5.33;;;3.17;;
8913;SDS011;4492;48.736;9.092;2022-10-18T01:06:32;5.77;;;2.90;;
8913;SDS011;4492;48.736;9.092;2022-10-18T01:09:08;4.83;;;3.20;;
8913;SDS011;4492;48.736;9.092;2022-10-18T01:14:51;5.90;;;2.87;;
8913;SDS011;4492;48.736;9.092;2022-10-18T01:17:35;3.23;;;2.90;;
8913;SDS011;4492;48.736;9.092;2022-10-18T01:22:59;7.03;;;3.50;;
8913;SDS011;4492;48.736;9.092;2022-10-18T01:31:22;4.87;;;3.07;;
8913;SDS011;4492;48.736;9.092;2022-10-18T01:34:02;4.57;;;2.80;;
8913;SDS011;4492;48.736;9.092;2022-10-18T01:36:33;9.33;;;3.37;;
8913;SDS011;4492;48.736;9.092;2022-10-18T01:39:10;7.63;;;3.07;;
8913;SDS011;4492;48.736;9.092;2022-10-18T01:41:39;4.20;;;2.80;;
8913;SDS011;4492;48.736;9.092;2022-10-18T01:44:08;6.93;;;2.90;;
8913;SDS011;4492;48.736;9.092;2022-10-18T01:46:38;3.07;;;2.77;;
8913;SDS011;4492;48.736;9.092;2022-10-18T01:49:06;3.23;;;2.80;;
8913;SDS011;4492;48.736;9.092;2022-10-18T01:51:32;3.07;;;2.70;;
8913;SDS011;4492;48.736;9.092;2022-10-18T01:53:58;4.10;;;3.07;;
8913;SDS011;4492;48.736;9.092;2022-10-18T01:59:21;4.93;;;2.57;;
8913;SDS011;4492;48.736;9.092;2022-10-18T02:07:48;3.73;;;2.63;;
8913;SDS011;4492;48.736;9.092;2022-10-18T02:10:32;8.27;;;3.00;;
8913;SDS011;4492;48.736;9.092;2022-10-18T02:13:08;4.40;;;2.67;;
8913;SDS011;4492;48.736;9.092;2022-10-18T02:15:38;3.30;;;2.87;;
8913;SDS011;4492;48.736;9.092;2022-10-18T02:18:09;4.03;;;3.10;;
8913;SDS011;4492;48.736;9.092;2022-10-18T02:20:38;5.60;;;3.10;;
8913;SDS011;4492;48.736;9.092;2022-10-18T02:23:07;4.83;;;2.87;;
8913;SDS011;4492;48.736;9.092;2022-10-18T02:25:35;7.93;;;2.57;;
8913;SDS011;4492;48.736;9.092;2022-10-18T02:28:01;3.53;;;3.10;;
8913;SDS011;4492;48.736;9.092;2022-10-18T02:30:50;3.80;;;2.83;;
8913;SDS011;4492;48.736;9.092;2022-10-18T02:34:06;4.27;;;3.00;;
8913;SDS011;4492;48.736;9.092;2022-10-18T02:36:18;6.57;;;2.60;;
8913;SDS011;4492;48.736;9.092;2022-10-18T02:39:18;3.30;;;2.83;;
8913;SDS011;4492;48.736;9.092;2022-10-18T02:41:47;5.47;;;3.27;;
8913;SDS011;4492;48.736;9.092;2022-10-18T02:44:13;5.03;;;3.10;;
8913;SDS011;4492;48.736;9.092;2022-10-18T02:46:39;7.00;;;2.93;;
8913;SDS011;4492;48.736;9.092;2022-10-18T02:49:05;5.77;;;2.80;;
8913;SDS011;4492;48.736;9.092;2022-10-18T02:51:31;6.67;;;3.47;;
8913;SDS011;4492;48.736;9.092;2022-10-18T02:53:56;5.20;;;3.20;;
8913;SDS011;4492;48.736;9.092;2022-10-18T02:56:22;5.10;;;3.07;;
8913;SDS011;4492;48.736;9.092;2022-10-18T02:58:47;4.27;;;3.07;;
8913;SDS011;4492;48.736;9.092;2022-10-18T03:01:13;8.27;;;3.20;;
8913;SDS011;4492;48.736;9.092;2022-10-18T03:03:38;5.03;;;3.30;;
8913;SDS011;4492;48.736;9.092;2022-10-18T03:06:04;4.13;;;2.73;;
8913;SDS011;4492;48.736;9.092;2022-10-18T03:08:30;7.97;;;3.57;;
8913;SDS011;4492;48.736;9.092;2022-10-18T03:10:55;7.80;;;3.27;;
8913;SDS011;4492;48.736;9.092;2022-10-18T03:13:21;5.00;;;3.00;;
8913;SDS011;4492;48.736;9.092;2022-10-18T03:15:46;7.87;;;3.57;;
8913;SDS011;4492;48.736;9.092;2022-10-18T03:18:12;6.87;;;3.00;;
8913;SDS011;4492;48.736;9.092;2022-10-18T03:20:38;3.60;;;3.17;;
8913;SDS011;4492;48.736;9.092;2022-10-18T03:23:04;5.00;;;3.10;;
8913;SDS011;4492;48.736;9.092;2022-10-18T03:25:31;6.20;;;3.20;;
8913;SDS011;4492;48.736;9.092;2022-10-18T03:27:57;5.40;;;2.93;;
8913;SDS011;4492;48.736;9.092;2022-10-18T03:30:23;4.50;;;2.87;;
8913;SDS011;4492;48.736;9.092;2022-10-18T03:32:48;3.67;;;2.87;;
8913;SDS011;4492;48.736;9.092;2022-10-18T03:35:14;7.83;;;2.80;;
8913;SDS011;4492;48.736;9.092;2022-10-18T03:37:40;4.30;;;2.60;;
8913;SDS011;4492;48.736;9.092;2022-10-18T03:40:06;5.83;;;2.83;;
8913;SDS011;4492;48.736;9.092;2022-10-18T03:42:32;4.90;;;2.70;;
8913;SDS011;4492;48.736;9.092;2022-10-18T03:44:58;3.17;;;2.87;;
8913;SDS011;4492;48.736;9.092;2022-10-18T03:47:23;5.93;;;2.90;;
8913;SDS011;4492;48.736;9.092;2022-10-18T03:49:49;5.27;;;2.60;;
8913;SDS011;4492;48.736;9.092;2022-10-18T03:52:14;6.57;;;2.53;;
8913;SDS011;4492;48.736;9.092;2022-10-18T03:54:40;2.83;;;2.63;;
8913;SDS011;4492;48.736;9.092;2022-10-18T03:57:05;5.27;;;3.07;;
8913;SDS011;4492;48.736;9.092;2022-10-18T03:59:31;5.07;;;2.57;;
8913;SDS011;4492;48.736;9.092;2022-10-18T04:01:56;5.33;;;3.13;;
8913;SDS011;4492;48.736;9.092;2022-10-18T04:04:22;3.87;;;2.50;;
8913;SDS011;4492;48.736;9.092;2022-10-18T04:06:48;5.07;;;3.00;;
8913;SDS011;4492;48.736;9.092;2022-10-18T04:09:13;5.50;;;3.07;;
8913;SDS011;4492;48.736;9.092;2022-10-18T04:11:39;4.10;;;2.93;;
8913;SDS011;4492;48.736;9.092;2022-10-18T04:14:04;5.10;;;2.60;;
8913;SDS011;4492;48.736;9.092;2022-10-18T04:16:30;4.53;;;2.63;;
8913;SDS011;4492;48.736;9.092;2022-10-18T04:18:56;2.97;;;2.70;;
8913;SDS011;4492;48.736;9.092;2022-10-18T04:21:21;3.00;;;2.77;;
8913;SDS011;4492;48.736;9.092;2022-10-18T04:23:47;5.77;;;3.20;;
8913;SDS011;4492;48.736;9.092;2022-10-18T04:26:14;3.13;;;2.83;;
8913;SDS011;4492;48.736;9.092;2022-10-18T04:28:40;4.60;;;2.50;;
8913;SDS011;4492;48.736;9.092;2022-10-18T04:31:07;3.07;;;2.77;;
8913;SDS011;4492;48.736;9.092;2022-10-18T04:33:33;4.80;;;3.50;;
8913;SDS011;4492;48.736;9.092;2022-10-18T04:35:58;4.87;;;3.10;;
8913;SDS011;4492;48.736;9.092;2022-10-18T04:38:24;4.07;;;2.90;;
8913;SDS011;4492;48.736;9.092;2022-10-18T04:40:49;5.10;;;3.10;;
8913;SDS011;4492;48.736;9.092;2022-10-18T04:43:15;3.37;;;3.00;;
8913;SDS011;4492;48.736;9.092;2022-10-18T04:45:40;6.63;;;3.60;;
8913;SDS011;4492;48.736;9.092;2022-10-18T04:48:08;8.97;;;3.00;;
8913;SDS011;4492;48.736;9.092;2022-10-18T04:50:33;5.87;;;3.40;;
8913;SDS011;4492;48.736;9.092;2022-10-18T04:52:59;5.07;;;3.73;;
8913;SDS011;4492;48.736;9.092;2022-10-18T04:55:25;5.10;;;3.23;;
8913;SDS011;4492;48.736;9.092;2022-10-18T04:57:51;4.60;;;3.30;;
8913;SDS011;4492;48.736;9.092;2022-10-18T05:00:17;5.83;;;3.07;;
8913;SDS011;4492;48.736;9.092;2022-10-18T05:02:42;4.43;;;3.40;;
8913;SDS011;4492;48.736;9.092;2022-10-18T05:05:08;6.77;;;3.27;;
8913;SDS011;4492;48.736;9.092;2022-10-18T05:07:34;5.40;;;3.20;;
8913;SDS011;4492;48.736;9.092;2022-10-18T05:09:59;6.67;;;3.33;;
8913;SDS011;4492;48.736;9.092;2022-10-18T05:12:25;5.73;;;3.43;;
8913;SDS011;4492;48.736;9.092;2022-10-18T05:14:50;4.07;;;2.93;;
8913;SDS011;4492;48.736;9.092;2022-10-18T05:17:16;3.20;;;2.90;;
8913;SDS011;4492;48.736;9.092;2022-10-18T05:19:41;3.67;;;2.87;;
8913;SDS011;4492;48.736;9.092;2022-10-18T05:22:07;4.87;;;2.67;;
8913;SDS011;4492;48.736;9.092;2022-10-18T05:24:32;6.07;;;3.30;;
8913;SDS011;4492;48.736;9.092;2022-10-18T05:26:58;5.90;;;3.43;;
8913;SDS011;4492;48.736;9.092;2022-10-18T05:29:23;8.70;;;3.27;;
8913;SDS011;4492;48.736;9.092;2022-10-18T05:31:49;5.03;;;3.17;;
8913;SDS011;4492;48.736;9.092;2022-10-18T05:34:15;6.83;;;3.37;;
8913;SDS011;4492;48.736;9.092;2022-10-18T05:36:41;7.73;;;3.67;;
8913;SDS011;4492;48.736;9.092;2022-10-18T05:39:07;9.13;;;3.40;;
8913;SDS011;4492;48.736;9.092;2022-10-18T05:41:33;6.80;;;3.70;;
8913;SDS011;4492;48.736;9.092;2022-10-18T05:44:03;4.87;;;3.57;;
8913;SDS011;4492;48.736;9.092;2022-10-18T05:46:29;4.20;;;3.50;;
8913;SDS011;4492;48.736;9.092;2022-10-18T05:48:55;5.90;;;3.50;;
8913;SDS011;4492;48.736;9.092;2022-10-18T05:51:21;7.17;;;3.60;;
8913;SDS011;4492;48.736;9.092;2022-10-18T05:53:46;4.47;;;3.10;;
8913;SDS011;4492;48.736;9.092;2022-10-18T05:56:12;6.53;;;3.60;;
8913;SDS011;4492;48.736;9.092;2022-10-18T05:58:39;6.30;;;3.77;;
8913;SDS011;4492;48.736;9.092;2022-10-18T06:01:06;7.43;;;3.50;;
8913;SDS011;4492;48.736;9.092;2022-10-18T06:03:32;4.80;;;3.43;;
8913;SDS011;4492;48.736;9.092;2022-10-18T06:08:25;4.77;;;3.10;;
8913;SDS011;4492;48.736;9.092;2022-10-18T06:10:50;5.50;;;3.20;;
8913;SDS011;4492;48.736;9.092;2022-10-18T06:13:16;4.90;;;3.23;;
8913;SDS011;4492;48.736;9.092;2022-10-18T06:15:41;5.67;;;3.50;;
8913;SDS011;4492;48.736;9.092;2022-10-18T06:18:07;5.63;;;3.30;;
8913;SDS011;4492;48.736;9.092;2022-10-18T06:20:32;3.77;;;3.37;;
8913;SDS011;4492;48.736;9.092;2022-10-18T06:22:58;6.83;;;3.83;;
8913;SDS011;4492;48.736;9.092;2022-10-18T06:25:24;12.23;;;3.20;;
8913;SDS011;4492;48.736;9.092;2022-10-18T06:27:49;6.07;;;3.60;;
8913;SDS011;4492;48.736;9.092;2022-10-18T06:30:15;9.10;;;3.40;;
8913;SDS011;4492;48.736;9.092;2022-10-18T06:32:40;4.53;;;3.13;;
8913;SDS011;4492;48.736;9.092;2022-10-18T06:35:06;3.27;;;2.97;;
8913;SDS011;4492;48.736;9.092;2022-10-18T06:37:32;6.00;;;3.40;;
8913;SDS011;4492;48.736;9.092;2022-10-18T06:39:59;5.67;;;2.70;;
8913;SDS011;4492;48.736;9.092;2022-10-18T06:42:24;4.93;;;3.00;;
8913;SDS011;4492;48.736;9.092;2022-10-18T06:44:50;5.90;;;3.20;;
8913;SDS011;4492;48.736;9.092;2022-10-18T06:47:15;6.63;;;3.50;;
8913;SDS011;4492;48.736;9.092;2022-10-18T06:49:41;4.77;;;3.03;;
8913;SDS011;4492;48.736;9.092;2022-10-18T06:52:06;4.17;;;3.77;;
8913;SDS011;4492;48.736;9.092;2022-10-18T06:54:32;6.23;;;3.30;;
8913;SDS011;4492;48.736;9.092;2022-10-18T06:56:58;8.83;;;3.40;;
8913;SDS011;4492;48.736;9.092;2022-10-18T06:59:23;8.50;;;3.13;;
8913;SDS011;4492;48.736;9.092;2022-10-18T07:01:49;6.77;;;3.00;;
8913;SDS011;4492;48.736;9.092;2022-10-18T07:04:14;10.40;;;3.30;;
8913;SDS011;4492;48.736;9.092;2022-10-18T07:06:40;5.00;;;3.13;;
8913;SDS011;4492;48.736;9.092;2022-10-18T07:09:05;9.27;;;3.60;;
8913;SDS011;4492;48.736;9.092;2022-10-18T07:11:31;3.17;;;2.90;;
8913;SDS011;4492;48.736;9.092;2022-10-18T07:14:00;4.57;;;3.37;;
8913;SDS011;4492;48.736;9.092;2022-10-18T07:16:28;7.20;;;3.57;;
8913;SDS011;4492;48.736;9.092;2022-10-18T07:18:55;6.70;;;3.13;;
8913;SDS011;4492;48.736;9.092;2022-10-18T07:21:21;6.53;;;3.10;;
8913;SDS011;4492;48.736;9.092;2022-10-18T07:23:49;4.07;;;3.00;;
8913;SDS011;4492;48.736;9.092;2022-10-18T07:26:16;4.87;;;3.17;;
8913;SDS011;4492;48.736;9.092;2022-10-18T07:28:48;6.67;;;3.23;;
8913;SDS011;4492;48.736;9.092;2022-10-18T07:31:19;4.17;;;3.10;;
8913;SDS011;4492;48.736;9.092;2022-10-18T07:33:46;3.50;;;3.20;;
8913;SDS011;4492;48.736;9.092;2022-10-18T07:36:12;6.63;;;3.27;;
8913;SDS011;4492;48.736;9.092;2022-10-18T07:38:37;5.13;;;3.33;;
8913;SDS011;4492;48.736;9.092;2022-10-18T07:41:04;6.40;;;3.00;;
8913;SDS011;4492;48.736;9.092;2022-10-18T07:43:31;4.10;;;3.47;;
8913;SDS011;4492;48.736;9.092;2022-10-18T07:45:59;6.47;;;3.27;;
8913;SDS011;4492;48.736;9.092;2022-10-18T07:48:26;4.10;;;3.33;;
8913;SDS011;4492;48.736;9.092;2022-10-18T07:50:52;3.77;;;3.17;;
8913;SDS011;4492;48.736;9.092;2022-10-18T07:53:17;4.33;;;3.30;;
8913;SDS011;4492;48.736;9.092;2022-10-18T07:55:43;7.10;;;3.60;;
8913;SDS011;4492;48.736;9.092;2022-10-18T07:58:09;5.50;;;3.40;;
8913;SDS011;4492;48.736;9.092;2022-10-18T08:00:35;5.20;;;3.67;;
8913;SDS011;4492;48.736;9.092;2022-10-18T08:03:01;6.07;;;3.43;;
8913;SDS011;4492;48.736;9.092;2022-10-18T08:05:28;4.53;;;3.40;;
8913;SDS011;4492;48.736;9.092;2022-10-18T08:07:54;3.47;;;2.90;;
8913;SDS011;4492;48.736;9.092;2022-10-18T08:10:20;4.30;;;3.23;;
8913;SDS011;4492;48.736;9.092;2022-10-18T08:12:48;4.03;;;3.17;;
8913;SDS011;4492;48.736;9.092;2022-10-18T08:15:13;4.40;;;3.20;;
8913;SDS011;4492;48.736;9.092;2022-10-18T08:17:39;6.70;;;3.37;;
8913;SDS011;4492;48.736;9.092;2022-10-18T08:20:05;6.17;;;2.97;;
8913;SDS011;4492;48.736;9.092;2022-10-18T08:22:30;4.63;;;2.80;;
8913;SDS011;4492;48.736;9.092;2022-10-18T08:24:56;8.33;;;3.67;;
8913;SDS011;4492;48.736;9.092;2022-10-18T08:27:22;3.90;;;2.97;;
8913;SDS011;4492;48.736;9.092;2022-10-18T08:29:49;4.60;;;3.60;;
8913;SDS011;4492;48.736;9.092;2022-10-18T08:32:15;6.07;;;3.20;;
8913;SDS011;4492;48.736;9.092;2022-10-18T08:34:40;3.90;;;3.10;;
8913;SDS011;4492;48.736;9.092;2022-10-18T08:37:06;5.53;;;3.57;;
8913;SDS011;4492;48.736;9.092;2022-10-18T08:39:31;4.80;;;3.60;;
8913;SDS011;4492;48.736;9.092;2022-10-18T08:45:03;7.80;;;3.43;;
8913;SDS011;4492;48.736;9.092;2022-10-18T08:47:33;4.40;;;2.70;;
8913;SDS011;4492;48.736;9.092;2022-10-18T08:50:04;3.57;;;2.80;;
8913;SDS011;4492;48.736;9.092;2022-10-18T08:52:33;5.60;;;3.40;;
8913;SDS011;4492;48.736;9.092;2022-10-18T08:55:35;4.10;;;3.00;;
8913;SDS011;4492;48.736;9.092;2022-10-18T09:07:11;5.27;;;3.60;;
8913;SDS011;4492;48.736;9.092;2022-10-18T09:13:06;7.40;;;3.17;;
8913;SDS011;4492;48.736;9.092;2022-10-18T09:15:58;7.43;;;3.60;;
8913;SDS011;4492;48.736;9.092;2022-10-18T09:18:31;4.77;;;3.17;;
8913;SDS011;4492;48.736;9.092;2022-10-18T09:26:30;5.20;;;2.70;;
8913;SDS011;4492;48.736;9.092;2022-10-18T09:29:07;7.23;;;3.00;;
8913;SDS011;4492;48.736;9.092;2022-10-18T09:32:06;4.23;;;2.77;;
8913;SDS011;4492;48.736;9.092;2022-10-18T09:37:40;9.17;;;3.10;;
8913;SDS011;4492;48.736;9.092;2022-10-18T09:42:46;4.40;;;2.73;;
8913;SDS011;4492;48.736;9.092;2022-10-18T09:45:24;5.40;;;2.70;;
8913;SDS011;4492;48.736;9.092;2022-10-18T09:50:38;5.33;;;3.20;;
8913;SDS011;4492;48.736;9.092;2022-10-18T09:58:53;9.20;;;3.10;;
8913;SDS011;4492;48.736;9.092;2022-10-18T10:01:24;3.90;;;2.67;;
8913;SDS011;4492;48.736;9.092;2022-10-18T10:03:50;2.60;;;2.40;;
8913;SDS011;4492;48.736;9.092;2022-10-18T10:06:21;7.03;;;2.90;;
8913;SDS011;4492;48.736;9.092;2022-10-18T10:08:49;5.53;;;3.00;;
8913;SDS011;4492;48.736;9.092;2022-10-18T10:11:25;4.63;;;2.80;;
8913;SDS011;4492;48.736;9.092;2022-10-18T10:13:50;3.03;;;2.60;;
8913;SDS011;4492;48.736;9.092;2022-10-18T10:16:16;4.47;;;2.70;;
8913;SDS011;4492;48.736;9.092;2022-10-18T10:18:42;5.90;;;2.77;;
8913;SDS011;4492;48.736;9.092;2022-10-18T10:21:12;3.60;;;2.60;;
8913;SDS011;4492;48.736;9.092;2022-10-18T10:26:22;6.80;;;3.10;;
8913;SDS011;4492;48.736;9.092;2022-10-18T10:28:51;5.07;;;3.00;;
8913;SDS011;4492;48.736;9.092;2022-10-18T10:36:25;12.30;;;3.40;;
8913;SDS011;4492;48.736;9.092;2022-10-18T10:39:01;7.37;;;3.27;;
8913;SDS011;4492;48.736;9.092;2022-10-18T10:41:27;11.40;;;4.33;;
8913;SDS011;4492;48.736;9.092;2022-10-18T10:43:53;5.70;;;3.40;;
8913;SDS011;4492;48.736;9.092;2022-10-18T10:46:19;6.80;;;4.80;;
8913;SDS011;4492;48.736;9.092;2022-10-18T10:51:26;5.87;;;2.93;;
8913;SDS011;4492;48.736;9.092;2022-10-18T10:54:04;3.07;;;2.87;;
8913;SDS011;4492;48.736;9.092;2022-10-18T10:56:52;4.87;;;2.77;;
8913;SDS011;4492;48.736;9.092;2022-10-18T10:59:27;7.13;;;3.10;;
8913;SDS011;4492;48.736;9.092;2022-10-18T11:02:18;3.23;;;2.90;;
8913;SDS011;4492;48.736;9.092;2022-10-18T11:04:53;9.17;;;3.83;;
8913;SDS011;4492;48.736;9.092;2022-10-18T11:07:32;5.23;;;3.03;;
8913;SDS011;4492;48.736;9.092;2022-10-18T11:13:04;3.40;;;2.90;;
8913;SDS011;4492;48.736;9.092;2022-10-18T11:15:51;5.30;;;2.90;;
8913;SDS011;4492;48.736;9.092;2022-10-18T11:18:33;3.73;;;2.43;;
8913;SDS011;4492;48.736;9.092;2022-10-18T11:21:09;7.80;;;2.47;;
8913;SDS011;4492;48.736;9.092;2022-10-18T11:23:41;2.87;;;2.60;;
8913;SDS011;4492;48.736;9.092;2022-10-18T11:31:40;4.10;;;2.73;;
8913;SDS011;4492;48.736;9.092;2022-10-18T11:36:59;5.90;;;2.30;;
8913;SDS011;4492;48.736;9.092;2022-10-18T11:39:53;3.20;;;2.20;;
8913;SDS011;4492;48.736;9.092;2022-10-18T11:47:58;9.43;;;4.10;;
8913;SDS011;4492;48.736;9.092;2022-10-18T11:50:47;4.97;;;3.40;;
8913;SDS011;4492;48.736;9.092;2022-10-18T11:56:10;3.00;;;2.73;;
8913;SDS011;4492;48.736;9.092;2022-10-18T11:58:58;4.00;;;3.60;;
8913;SDS011;4492;48.736;9.092;2022-10-18T12:06:49;6.03;;;2.87;;
8913;SDS011;4492;48.736;9.092;2022-10-18T12:09:22;4.27;;;2.77;;
8913;SDS011;4492;48.736;9.092;2022-10-18T12:12:17;3.73;;;1.80;;
8913;SDS011;4492;48.736;9.092;2022-10-18T12:14:50;2.70;;;1.70;;
8913;SDS011;4492;48.736;9.092;2022-10-18T12:20:12;2.50;;;1.50;;
8913;SDS011;4492;48.736;9.092;2022-10-18T12:22:45;2.23;;;1.47;;
8913;SDS011;4492;48.736;9.092;2022-10-18T12:25:34;1.50;;;1.40;;
8913;SDS011;4492;48.736;9.092;2022-10-18T12:30:58;2.80;;;1.47;;
8913;SDS011;4492;48.736;9.092;2022-10-18T12:33:49;4.03;;;1.23;;
8913;SDS011;4492;48.736;9.092;2022-10-18T12:38:46;1.47;;;1.20;;
8913;SDS011;4492;48.736;9.092;2022-10-18T12:41:21;6.33;;;1.10;;
8913;SDS011;4492;48.736;9.092;2022-10-18T12:43:50;2.57;;;1.20;;
8913;SDS011;4492;48.736;9.092;2022-10-18T12:46:18;1.80;;;1.37;;
8913;SDS011;4492;48.736;9.092;2022-10-18T12:48:43;1.50;;;1.40;;
8913;SDS011;4492;48.736;9.092;2022-10-18T12:51:15;3.27;;;1.60;;
8913;SDS011;4492;48.736;9.092;2022-10-18T12:53:44;5.97;;;1.77;;
8913;SDS011;4492;48.736;9.092;2022-10-18T12:59:22;1.70;;;1.57;;
8913;SDS011;4492;48.736;9.092;2022-10-18T13:09:25;1.83;;;1.73;;
8913;SDS011;4492;48.736;9.092;2022-10-18T13:12:45;5.93;;;1.97;;
8913;SDS011;4492;48.736;9.092;2022-10-18T13:14:45;3.83;;;1.90;;
8913;SDS011;4492;48.736;9.092;2022-10-18T13:25:53;4.30;;;1.83;;
8913;SDS011;4492;48.736;9.092;2022-10-18T13:28:30;2.93;;;1.60;;
8913;SDS011;4492;48.736;9.092;2022-10-18T13:33:41;2.30;;;1.60;;
8913;SDS011;4492;48.736;9.092;2022-10-18T13:38:45;2.73;;;1.60;;
8913;SDS011;4492;48.736;9.092;2022-10-18T13:41:26;3.80;;;1.63;;
8913;SDS011;4492;48.736;9.092;2022-10-18T13:44:08;7.03;;;1.50;;
8913;SDS011;4492;48.736;9.092;2022-10-18T13:54:56;2.17;;;1.67;;
8913;SDS011;4492;48.736;9.092;2022-10-18T14:08:19;2.37;;;1.30;;
8913;SDS011;4492;48.736;9.092;2022-10-18T14:10:57;3.57;;;1.50;;
8913;SDS011;4492;48.736;9.092;2022-10-18T14:13:41;3.13;;;1.40;;
8913;SDS011;4492;48.736;9.092;2022-10-18T14:16:37;2.27;;;1.30;;
8913;SDS011;4492;48.736;9.092;2022-10-18T14:19:18;2.57;;;1.50;;
8913;SDS011;4492;48.736;9.092;2022-10-18T14:21:58;1.50;;;1.27;;
8913;SDS011;4492;48.736;9.092;2022-10-18T14:24:45;2.33;;;1.27;;
8913;SDS011;4492;48.736;9.092;2022-10-18T14:27:25;3.80;;;1.37;;
8913;SDS011;4492;48.736;9.092;2022-10-18T14:30:08;8.03;;;1.60;;
8913;SDS011;4492;48.736;9.092;2022-10-18T14:32:44;5.83;;;1.60;;
8913;SDS011;4492;48.736;9.092;2022-10-18T14:35:23;1.40;;;1.30;;
8913;SDS011;4492;48.736;9.092;2022-10-18T14:38:02;3.13;;;1.60;;
8913;SDS011;4492;48.736;9.092;2022-10-18T14:40:38;1.60;;;1.20;;
8913;SDS011;4492;48.736;9.092;2022-10-18T14:43:11;3.17;;;1.50;;
8913;SDS011;4492;48.736;9.092;2022-10-18T14:45:40;3.33;;;1.60;;
8913;SDS011;4492;48.736;9.092;2022-10-18T14:50:31;3.77;;;1.83;;
8913;SDS011;4492;48.736;9.092;2022-10-18T14:53:02;2.13;;;1.67;;
8913;SDS011;4492;48.736;9.092;2022-10-18T14:55:33;1.80;;;1.70;;
8913;SDS011;4492;48.736;9.092;2022-10-18T14:58:00;2.30;;;1.60;;
8913;SDS011;4492;48.736;9.092;2022-10-18T15:00:33;2.20;;;1.93;;
8913;SDS011;4492;48.736;9.092;2022-10-18T15:03:04;4.17;;;2.20;;
8913;SDS011;4492;48.736;9.092;2022-10-18T15:05:31;3.33;;;1.73;;
8913;SDS011;4492;48.736;9.092;2022-10-18T15:07:57;2.77;;;2.00;;
8913;SDS011;4492;48.736;9.092;2022-10-18T15:10:27;3.63;;;1.90;;
8913;SDS011;4492;48.736;9.092;2022-10-18T15:12:56;3.37;;;2.23;;
8913;SDS011;4492;48.736;9.092;2022-10-18T15:15:26;3.73;;;2.40;;
8913;SDS011;4492;48.736;9.092;2022-10-18T15:17:54;3.33;;;2.30;;
8913;SDS011;4492;48.736;9.092;2022-10-18T15:20:22;4.23;;;2.33;;
8913;SDS011;4492;48.736;9.092;2022-10-18T15:25:47;5.17;;;2.37;;
8913;SDS011;4492;48.736;9.092;2022-10-18T15:28:26;3.87;;;2.37;;
8913;SDS011;4492;48.736;9.092;2022-10-18T15:30:57;4.07;;;2.70;;
8913;SDS011;4492;48.736;9.092;2022-10-18T15:33:23;4.83;;;2.70;;
8913;SDS011;4492;48.736;9.092;2022-10-18T15:35:51;7.30;;;3.27;;
8913;SDS011;4492;48.736;9.092;2022-10-18T15:40:51;5.17;;;3.00;;
8913;SDS011;4492;48.736;9.092;2022-10-18T15:45:55;3.60;;;3.13;;
8913;SDS011;4492;48.736;9.092;2022-10-18T15:50:54;3.73;;;2.73;;
8913;SDS011;4492;48.736;9.092;2022-10-18T15:58:44;3.33;;;2.73;;
8913;SDS011;4492;48.736;9.092;2022-10-18T16:01:19;5.40;;;3.23;;
8913;SDS011;4492;48.736;9.092;2022-10-18T16:03:52;3.50;;;2.80;;
8913;SDS011;4492;48.736;9.092;2022-10-18T16:06:17;3.10;;;2.90;;
8913;SDS011;4492;48.736;9.092;2022-10-18T16:08:49;3.70;;;3.13;;
8913;SDS011;4492;48.736;9.092;2022-10-18T16:11:20;9.30;;;2.77;;
8913;SDS011;4492;48.736;9.092;2022-10-18T16:13:49;4.33;;;3.43;;
8913;SDS011;4492;48.736;9.092;2022-10-18T16:16:18;4.10;;;2.97;;
8913;SDS011;4492;48.736;9.092;2022-10-18T16:18:48;5.13;;;3.43;;
8913;SDS011;4492;48.736;9.092;2022-10-18T16:21:15;5.57;;;3.43;;
8913;SDS011;4492;48.736;9.092;2022-10-18T16:23:45;3.33;;;3.00;;
8913;SDS011;4492;48.736;9.092;2022-10-18T16:26:11;5.93;;;3.43;;
8913;SDS011;4492;48.736;9.092;2022-10-18T16:28:37;4.43;;;3.60;;
8913;SDS011;4492;48.736;9.092;2022-10-18T16:31:02;3.53;;;3.27;;
8913;SDS011;4492;48.736;9.092;2022-10-18T16:33:28;3.77;;;3.37;;
8913;SDS011;4492;48.736;9.092;2022-10-18T16:35:55;4.00;;;3.70;;
8913;SDS011;4492;48.736;9.092;2022-10-18T16:38:24;5.90;;;3.13;;
8913;SDS011;4492;48.736;9.092;2022-10-18T16:40:51;3.93;;;3.57;;
8913;SDS011;4492;48.736;9.092;2022-10-18T16:43:17;4.97;;;3.63;;
8913;SDS011;4492;48.736;9.092;2022-10-18T16:45:43;4.33;;;3.93;;
8913;SDS011;4492;48.736;9.092;2022-10-18T16:48:15;4.00;;;3.70;;
8913;SDS011;4492;48.736;9.092;2022-10-18T16:50:43;6.97;;;3.60;;
8913;SDS011;4492;48.736;9.092;2022-10-18T16:53:09;4.57;;;3.70;;
8913;SDS011;4492;48.736;9.092;2022-10-18T16:55:36;6.70;;;4.10;;
8913;SDS011;4492;48.736;9.092;2022-10-18T16:58:03;10.70;;;4.17;;
8913;SDS011;4492;48.736;9.092;2022-10-18T17:00:29;7.23;;;4.10;;
8913;SDS011;4492;48.736;9.092;2022-10-18T17:02:55;6.73;;;4.33;;
8913;SDS011;4492;48.736;9.092;2022-10-18T17:05:20;9.17;;;4.33;;
8913;SDS011;4492;48.736;9.092;2022-10-18T17:07:47;5.90;;;4.00;;
8913;SDS011;4492;48.736;9.092;2022-10-18T17:10:13;7.80;;;4.40;;
8913;SDS011;4492;48.736;9.092;2022-10-18T17:12:41;10.30;;;8.07;;
8913;SDS011;4492;48.736;9.092;2022-10-18T17:15:07;7.30;;;5.60;;
8913;SDS011;4492;48.736;9.092;2022-10-18T17:17:33;5.37;;;4.90;;
8913;SDS011;4492;48.736;9.092;2022-10-18T17:19:59;5.00;;;4.50;;
8913;SDS011;4492;48.736;9.092;2022-10-18T17:22:24;6.03;;;4.57;;
8913;SDS011;4492;48.736;9.092;2022-10-18T17:24:50;9.40;;;5.60;;
8913;SDS011;4492;48.736;9.092;2022-10-18T17:27:15;6.93;;;4.83;;
8913;SDS011;4492;48.736;9.092;2022-10-18T17:29:41;5.10;;;4.70;;
8913;SDS011;4492;48.736;9.092;2022-10-18T17:32:07;7.57;;;5.13;;
8913;SDS011;4492;48.736;9.092;2022-10-18T17:34:33;5.30;;;4.90;;
8913;SDS011;4492;48.736;9.092;2022-10-18T17:37:00;8.60;;;5.30;;
8913;SDS011;4492;48.736;9.092;2022-10-18T17:39:27;5.33;;;4.80;;
8913;SDS011;4492;48.736;9.092;2022-10-18T17:41:53;5.03;;;4.53;;
8913;SDS011;4492;48.736;9.092;2022-10-18T17:44:19;7.83;;;5.00;;
8913;SDS011;4492;48.736;9.092;2022-10-18T17:46:45;5.80;;;5.30;;
8913;SDS011;4492;48.736;9.092;2022-10-18T17:49:11;7.17;;;5.43;;
8913;SDS011;4492;48.736;9.092;2022-10-18T17:51:38;6.27;;;5.33;;
8913;SDS011;4492;48.736;9.092;2022-10-18T17:54:05;7.70;;;5.37;;
8913;SDS011;4492;48.736;9.092;2022-10-18T17:56:31;6.23;;;4.90;;
8913;SDS011;4492;48.736;9.092;2022-10-18T17:58:57;8.77;;;5.60;;
8913;SDS011;4492;48.736;9.092;2022-10-18T18:01:23;7.47;;;6.60;;
8913;SDS011;4492;48.736;9.092;2022-10-18T18:03:54;9.07;;;8.00;;
8913;SDS011;4492;48.736;9.092;2022-10-18T18:06:30;7.03;;;6.43;;
8913;SDS011;4492;48.736;9.092;2022-10-18T18:09:07;7.00;;;6.20;;
8913;SDS011;4492;48.736;9.092;2022-10-18T18:11:35;6.53;;;5.93;;
8913;SDS011;4492;48.736;9.092;2022-10-18T18:14:03;8.13;;;6.43;;